• Join FlightAware (Why Join?)
  • Login
  • US Flag 
11:22PM EDT


 

Airport Tracker/Info


-or-


 

Live Flight TrackerFlight Track Log ✈ AMF9313 ✈ 29-Jun-2013 ✈ KTYS - KMQY

Flight Track Log - Related Links

Times and Time Zones

All times are in EDT time to prevent confusion due to time zone crossing. See the AMF9313 flight status page for this flight to view local times or setup timezone preferences in your user account.

Time Position Orientation Groundspeed Altitude Reporting Facility
EDT Latitude Longitude Course Direction KTS MPH feet Rate Location/Type
07:05AM 35.7975 -84.0439 265° West 174 200 2,800  Level Atlanta Center
07:06AM 35.7933 -84.1028 265° West 174 200 4,800 1,920 Climbing Atlanta Center
07:07AM 35.7911 -84.1592 267° West 174 200 6,700 1,740 Climbing Atlanta Center
07:08AM 35.7911 -84.2153 270° West 174 200 8,300 1,560 Climbing Atlanta Center
07:09AM 35.7911 -84.2742 270° West 174 200 9,900 1,500 Climbing Atlanta Center
07:10AM 35.7908 -84.3331 270° West 174 200 11,300 1,200 Climbing Atlanta Center
07:11AM 35.7928 -84.3894 272° West 174 200 12,400 1,140 Climbing Atlanta Center
07:12AM 35.7989 -84.4511 277° West 180 207 13,600 1,080 Climbing Atlanta Center
07:13AM 35.8069 -84.5125 279° West 180 207 14,600 960 Climbing Atlanta Center
07:14AM 35.8131 -84.5739 277° West 180 207 15,600 720 Climbing Atlanta Center
07:15AM 35.8169 -84.6381 274° West 185 213 16,100 240 Climbing Atlanta Center
07:16AM 35.8228 -84.7097 276° West 195 224 16,100  Level Atlanta Center
07:17AM 35.8308 -84.7814 278° West 206 237 16,100  Level Atlanta Center
07:18AM 35.8389 -84.8353 280° West 206 237 16,100  Level Atlanta Center
07:20AM 35.8650 -85.0344 279° West 220 253 16,100 -120 Level Memphis Center
07:21AM 35.8786 -85.1078 283° West 220 253 15,800 -720 Descending Memphis Center
07:22AM 35.8883 -85.1892 278° West 220 253 14,700 -1,080 Descending Memphis Center
07:23AM 35.8939 -85.2733 275° West 239 275 13,700 -1,200 Descending Memphis Center
07:24AM 35.8994 -85.3600 275° West 249 287 12,400 -1,080 Descending Memphis Center
07:25AM 35.9067 -85.4339 277° West 255 293 11,600 -900 Descending Memphis Center
07:26AM 35.9142 -85.5206 276° West 255 293 10,700 -900 Descending Memphis Center
07:27AM 35.9217 -85.6072 276° West 255 293 9,900 -900 Descending Memphis Center
07:28AM 35.9311 -85.6914 278° West 255 293 9,000 -900 Descending Memphis Center
07:29AM 35.9386 -85.7781 276° West 255 293 8,200 -540 Descending Memphis Center
07:30AM 35.9483 -85.8750 277° West 255 293 8,000 -600 Descending Memphis Center
07:31AM 35.9536 -85.9619 274° West 255 293 7,000 -1,140 Descending Memphis Center
07:32AM 35.9586 -86.0514 274° West 260 299 5,800 -1,200 Descending Memphis Center
07:33AM 35.9658 -86.1383 276° West 260 299 4,600 -1,020 Descending Memphis Center
07:34AM 35.9747 -86.2172 278° West 260 299 3,800 -840 Descending Memphis Center
07:35AM 35.9817 -86.2989 276° West 250 288 3,000 2,100 Descending Memphis Center
07:36AM 35.9847 -86.3911 272° West 250 288 8,000 2,460 Climbing Memphis Center
07:37AM 35.9911 -86.4678 276° West 250 288 8,000  Level Memphis Center
07:38AM 35.9997 -86.5444 278° West 250 288 8,000  Level Memphis Center
07:39AM 36.0022 -86.6264 272° West 250 288 8,000  Level Memphis Center
07:40AM 36.0022 -86.6264 22° Northeast 250 288 8,000  Level Memphis Center
07:43AM 36.0004 -86.5363 91° East  Level FlightAware Approximate
07:50AM 36.0000 -86.5167 90° East  Level FlightAware Approximate
07:51AM 36.0090 -86.5201 90° East  Level Estimated
07:52AM 36.0090 -86.5201 90° East  Level Estimated
07:53AM 36.0090 -86.5201 90° East  Level Estimated
07:54AM 36.0090 -86.5201 90° East  Level Estimated
07:55AM 36.0090 -86.5201 90° East  Level Estimated
07:56AM 36.0090 -86.5201 90° East  Level Estimated
07:57AM 36.0090 -86.5201 90° East  Level Estimated